Galar, Spain
Current Conditions -  °F | °C
As of 9:30 PM on Monday 22 Dec 2014 (Local Time) from LEPP Reporting Station
Light Fog Light Fog  
Wind Chill: 26°   Ceiling: Unl
Heat Index: 34°   Visibility: 0.87mi
Dew Point: 34°   Wind: 9mph
Humidity: 100%   Direction: 130°SE
Pressure: 30.45"   Gusts: NA
Location:  42.76°N, 1.7°W
Report Text: LEPP 222030Z 13008KT 1400 R33/1400U R15/P2000 BCFG SCT002 01/01 Q1031
Loading
Personal Weather Stations






























Interactive Weather Map New forecast layout! Learn more

10-Day Weather Forecast

Advertisements
Track Severe Weather on mobile